createdAt,value
2018-04-25T00:00:04.528Z,13.17
2018-04-25T00:06:08.970Z,13.20
2018-04-25T00:12:13.434Z,13.08
2018-04-25T00:18:17.843Z,13.31
2018-04-25T00:24:22.261Z,13.31
2018-04-25T00:30:27.420Z,13.30
2018-04-25T00:36:31.967Z,13.22
2018-04-25T00:42:36.335Z,13.37
2018-04-25T00:48:40.724Z,13.24
2018-04-25T00:54:45.131Z,13.15
2018-04-25T01:00:49.499Z,13.16
2018-04-25T01:06:53.934Z,13.25
2018-04-25T01:12:59.241Z,13.39
2018-04-25T01:19:03.640Z,13.35
2018-04-25T01:25:09.816Z,13.29
2018-04-25T01:31:33.669Z,13.27
2018-04-25T01:37:55.505Z,13.31
2018-04-25T01:43:59.928Z,13.39
2018-04-25T01:50:15.158Z,13.37
2018-04-25T01:56:37.379Z,13.17
2018-04-25T02:02:47.599Z,12.78
2018-04-25T02:08:51.776Z,12.85
2018-04-25T02:14:56.323Z,12.91
2018-04-25T02:21:00.700Z,12.78
2018-04-25T02:27:05.189Z,12.72
2018-04-25T02:33:09.591Z,12.85
2018-04-25T02:39:14.153Z,12.96
2018-04-25T02:45:19.344Z,13.09
2018-04-25T02:51:24.011Z,13.14
2018-04-25T02:57:28.406Z,13.49
2018-04-25T03:03:32.786Z,13.96
2018-04-25T03:09:37.217Z,14.16
2018-04-25T03:15:41.615Z,14.15
2018-04-25T03:21:45.973Z,14.55
2018-04-25T03:27:50.415Z,14.69
2018-04-25T03:33:55.566Z,14.52
2018-04-25T03:39:59.919Z,14.76
2018-04-25T03:46:04.417Z,14.70
2018-04-25T03:52:08.781Z,14.98
2018-04-25T03:58:13.190Z,14.82
2018-04-25T04:04:17.888Z,14.79
2018-04-25T04:10:23.002Z,14.70
2018-04-25T04:16:27.634Z,14.88
2018-04-25T04:22:32.181Z,14.89
2018-04-25T04:28:36.621Z,14.89
2018-04-25T04:34:41.771Z,14.98
2018-04-25T04:40:46.186Z,14.77
2018-04-25T04:46:51.399Z,14.88
2018-04-25T04:52:55.768Z,14.75
2018-04-25T04:59:00.154Z,14.81
2018-04-25T05:05:05.451Z,14.86
2018-04-25T05:11:09.808Z,14.84
2018-04-25T05:17:14.211Z,15.00
2018-04-25T05:23:18.650Z,15.00
2018-04-25T05:29:23.872Z,15.02
2018-04-25T05:35:28.239Z,15.06
2018-04-25T05:41:32.603Z,14.96
2018-04-25T05:47:37.092Z,15.02
2018-04-25T05:53:41.814Z,15.24
2018-04-25T05:59:46.247Z,15.19
2018-04-25T06:05:50.638Z,15.40
2018-04-25T06:11:55.108Z,15.60
2018-04-25T06:17:59.488Z,15.67
2018-04-25T06:24:03.870Z,15.56
2018-04-25T06:30:08.351Z,15.70
2018-04-25T06:36:12.829Z,15.77
2018-04-25T06:42:17.203Z,16.40
2018-04-25T06:48:21.617Z,16.76
2018-04-25T06:54:25.993Z,16.93
2018-04-25T07:00:30.381Z,17.13
2018-04-25T07:06:35.515Z,17.46
2018-04-25T07:12:39.893Z,17.56
2018-04-25T07:18:44.233Z,17.84
2018-04-25T07:24:49.371Z,17.85
2018-04-25T07:30:53.803Z,17.30
2018-04-25T07:36:58.939Z,17.38
2018-04-25T07:43:03.295Z,17.27
2018-04-25T07:49:07.676Z,17.62
2018-04-25T07:55:12.058Z,17.27
2018-04-25T08:01:16.407Z,16.85
2018-04-25T08:07:20.770Z,16.59
2018-04-25T08:13:43.754Z,16.66
2018-04-25T08:20:05.907Z,16.36
2018-04-25T08:26:10.401Z,15.96
2018-04-25T08:32:14.782Z,15.71
2018-04-25T08:38:19.185Z,15.50
2018-04-25T08:44:23.604Z,15.32
2018-04-25T08:50:28.011Z,14.57
2018-04-25T08:56:32.772Z,14.23
2018-04-25T09:02:37.252Z,14.31
2018-04-25T09:08:41.603Z,14.08
2018-04-25T09:14:45.987Z,13.68
2018-04-25T09:20:50.355Z,13.90
2018-04-25T09:26:54.730Z,14.09
2018-04-25T09:32:59.146Z,14.39
2018-04-25T09:39:04.009Z,14.55
2018-04-25T09:45:08.411Z,14.49
2018-04-25T09:51:12.781Z,14.78
2018-04-25T09:57:17.212Z,14.93
2018-04-25T10:03:23.351Z,15.15
2018-04-25T10:09:27.907Z,15.45
2018-04-25T10:15:33.220Z,16.77
2018-04-25T10:21:37.697Z,17.14
2018-04-25T10:27:42.062Z,17.15
2018-04-25T10:33:46.431Z,18.43
2018-04-25T10:39:50.786Z,19.21
2018-04-25T10:45:55.977Z,19.35
2018-04-25T10:52:00.338Z,18.91
2018-04-25T10:58:06.315Z,17.64
2018-04-25T11:04:10.705Z,16.46
2018-04-25T11:10:15.104Z,15.59
2018-04-25T11:16:19.779Z,14.87
2018-04-25T11:22:24.178Z,14.69
2018-04-25T11:28:29.406Z,14.62
2018-04-25T11:34:33.922Z,14.15
2018-04-25T11:40:39.073Z,13.47
2018-04-25T11:46:43.444Z,13.20
2018-04-25T11:52:47.912Z,13.26
2018-04-25T11:58:52.282Z,13.21
2018-04-25T12:04:57.541Z,13.12
2018-04-25T12:11:01.919Z,13.40
2018-04-25T12:17:07.141Z,13.68
2018-04-25T12:23:11.515Z,14.52
2018-04-25T12:29:16.635Z,16.48
2018-04-25T12:35:21.005Z,16.48
2018-04-25T12:41:25.337Z,15.80
2018-04-25T12:47:30.427Z,15.90
2018-04-25T12:53:34.837Z,15.57
2018-04-25T12:59:39.967Z,15.30
2018-04-25T13:05:44.332Z,15.14
2018-04-25T13:11:49.551Z,15.37
2018-04-25T13:17:53.978Z,15.85
2018-04-25T13:23:58.344Z,16.99
2018-04-25T13:30:03.523Z,16.84
2018-04-25T13:36:08.667Z,17.16
2018-04-25T13:42:13.039Z,17.66
2018-04-25T13:48:17.396Z,17.76
2018-04-25T13:54:21.792Z,16.83
2018-04-25T14:00:26.152Z,16.30
2018-04-25T14:06:30.543Z,15.80
2018-04-25T14:12:34.896Z,15.48
2018-04-25T14:18:39.296Z,15.16
2018-04-25T14:24:43.731Z,15.25
2018-04-25T14:30:49.647Z,15.71
2018-04-25T14:36:54.024Z,16.02
2018-04-25T14:42:58.379Z,17.70
2018-04-25T14:49:03.612Z,18.33
2018-04-25T14:55:07.987Z,19.65
2018-04-25T15:01:12.365Z,17.85
2018-04-25T15:07:16.798Z,16.61
2018-04-25T15:13:21.936Z,16.06
2018-04-25T15:19:26.289Z,16.50
2018-04-25T15:25:30.730Z,18.14
2018-04-25T15:31:35.135Z,17.25
2018-04-25T15:37:39.542Z,16.74
2018-04-25T15:43:43.903Z,16.43
2018-04-25T15:49:48.378Z,15.83
2018-04-25T15:55:52.736Z,15.96
2018-04-25T16:01:57.118Z,15.79
2018-04-25T16:08:02.200Z,15.59
2018-04-25T16:14:08.083Z,15.53
2018-04-25T16:20:12.501Z,15.18
2018-04-25T16:26:17.794Z,14.78
2018-04-25T16:32:22.158Z,15.12
2018-04-25T16:38:27.432Z,17.12
2018-04-25T16:44:32.468Z,16.81
2018-04-25T16:50:36.815Z,15.72
2018-04-25T16:56:41.207Z,15.07
2018-04-25T17:02:45.560Z,14.59
2018-04-25T17:08:51.387Z,14.40
2018-04-25T17:14:55.762Z,14.28
2018-04-25T17:21:00.131Z,14.96
2018-04-25T17:27:05.273Z,14.79
2018-04-25T17:33:09.650Z,14.61
2018-04-25T17:39:14.047Z,14.36
2018-04-25T17:45:19.182Z,14.09
2018-04-25T17:51:23.541Z,14.18
2018-04-25T17:57:27.947Z,14.09
2018-04-25T18:03:32.288Z,13.79
2018-04-25T18:09:36.772Z,13.96
2018-04-25T18:15:41.173Z,13.70
2018-04-25T18:21:45.528Z,13.73
2018-04-25T18:27:50.093Z,13.56
2018-04-25T18:33:54.631Z,13.41
2018-04-25T18:39:59.780Z,13.23
2018-04-25T18:46:05.340Z,13.28
2018-04-25T18:52:09.750Z,13.12
2018-04-25T18:58:14.113Z,12.95
2018-04-25T19:04:18.503Z,12.87
2018-04-25T19:10:22.907Z,12.72
2018-04-25T19:16:27.324Z,12.71
2018-04-25T19:22:32.878Z,12.53
2018-04-25T19:28:37.577Z,12.52
2018-04-25T19:34:42.894Z,12.42
2018-04-25T19:40:47.337Z,12.58
2018-04-25T19:46:51.680Z,12.82
2018-04-25T19:52:56.051Z,12.89
2018-04-25T19:59:00.426Z,12.83
2018-04-25T20:05:04.896Z,12.83
2018-04-25T20:11:10.115Z,12.89
2018-04-25T20:17:14.570Z,12.94
2018-04-25T20:23:19.711Z,12.97
2018-04-25T20:29:24.140Z,12.90
2018-04-25T20:35:28.520Z,12.85
2018-04-25T20:41:33.013Z,12.87
2018-04-25T20:47:38.353Z,12.73
2018-04-25T20:53:42.713Z,12.65
2018-04-25T20:59:47.085Z,12.37
2018-04-25T21:05:51.452Z,11.86
2018-04-25T21:11:55.828Z,11.63
2018-04-25T21:18:00.206Z,11.26
2018-04-25T21:24:04.835Z,11.25
2018-04-25T21:30:09.978Z,10.92
2018-04-25T21:36:14.414Z,10.60
2018-04-25T21:42:18.903Z,10.50
2018-04-25T21:48:23.247Z,10.49
2018-04-25T21:54:28.374Z,10.45
2018-04-25T22:00:32.910Z,10.46
2018-04-25T22:06:37.324Z,10.20
2018-04-25T22:12:41.745Z,10.23
2018-04-25T22:18:46.180Z,10.18
2018-04-25T22:24:50.541Z,10.26
2018-04-25T22:30:54.911Z,9.92
2018-04-25T22:37:00.200Z,9.59
2018-04-25T22:43:04.649Z,9.34
2018-04-25T22:49:08.986Z,9.40
2018-04-25T22:55:13.485Z,9.32
2018-04-25T23:01:17.918Z,9.53
2018-04-25T23:07:22.270Z,9.69
2018-04-25T23:13:27.393Z,9.56
2018-04-25T23:19:31.985Z,9.53
2018-04-25T23:25:36.379Z,9.71
2018-04-25T23:31:40.723Z,9.71
2018-04-25T23:37:45.078Z,9.79
2018-04-25T23:43:50.226Z,9.76
2018-04-25T23:49:54.578Z,9.73
2018-04-25T23:55:58.926Z,9.79
